Terminal Aerodrome Forecast
Issued by NWS

Home | Current Version | Previous Version | Text Only | Print | Product List | Glossary On
Versions: 1 2 3 4 5 6 7 8 9 10 11 12 13 14 15 16 17 18 19 20
325
FTUS46 KLOX 181754 AAA
TAFSBA
TAF AMD
KSBA 181754Z 1818/1918 10008KT P6SM VCSH SCT015 OVC110
      TEMPO 1818/1821 BKN021
     FM182100 12010KT P6SM -SHRA BKN020 BKN040
     FM190200 12015KT 5SM -RA BR OVC015
     FM190900 10015G25KT 3SM RA BR BKN008 OVC015
     FM191500 21014G25KT 3SM TSRA BR BKN005 OVC010CB=

USA.gov is the U.S. government's official web portal to all federal, state and local government web resources and services.